sensor_id;sensor_type;location;lat;lon;timestamp;temperature;humidity
32664;DHT22;19847;48.670;9.242;2022-07-21T00:02:07;20.00;99.90
32664;DHT22;19847;48.670;9.242;2022-07-21T00:05:29;20.00;99.90
32664;DHT22;19847;48.670;9.242;2022-07-21T00:08:52;20.00;99.90
32664;DHT22;19847;48.670;9.242;2022-07-21T00:12:15;19.90;99.90
32664;DHT22;19847;48.670;9.242;2022-07-21T00:15:38;19.90;99.90
32664;DHT22;19847;48.670;9.242;2022-07-21T00:19:01;19.80;99.90
32664;DHT22;19847;48.670;9.242;2022-07-21T00:22:23;19.90;99.90
32664;DHT22;19847;48.670;9.242;2022-07-21T00:25:45;20.00;99.90
32664;DHT22;19847;48.670;9.242;2022-07-21T00:29:07;20.00;99.90
32664;DHT22;19847;48.670;9.242;2022-07-21T00:32:30;19.90;99.90
32664;DHT22;19847;48.670;9.242;2022-07-21T00:35:57;19.90;99.90
32664;DHT22;19847;48.670;9.242;2022-07-21T00:39:19;20.00;99.90
32664;DHT22;19847;48.670;9.242;2022-07-21T00:42:41;20.10;99.90
32664;DHT22;19847;48.670;9.242;2022-07-21T00:46:04;20.00;99.90
32664;DHT22;19847;48.670;9.242;2022-07-21T00:49:28;20.10;99.90
32664;DHT22;19847;48.670;9.242;2022-07-21T00:52:51;20.10;99.90
32664;DHT22;19847;48.670;9.242;2022-07-21T00:56:13;20.00;99.90
32664;DHT22;19847;48.670;9.242;2022-07-21T00:59:35;20.10;99.90
32664;DHT22;19847;48.670;9.242;2022-07-21T01:02:58;20.10;99.90
32664;DHT22;19847;48.670;9.242;2022-07-21T01:06:23;20.10;99.90
32664;DHT22;19847;48.670;9.242;2022-07-21T01:09:45;20.10;99.90
32664;DHT22;19847;48.670;9.242;2022-07-21T01:13:07;20.10;99.90
32664;DHT22;19847;48.670;9.242;2022-07-21T01:16:30;20.10;99.90
32664;DHT22;19847;48.670;9.242;2022-07-21T01:19:52;20.00;99.90
32664;DHT22;19847;48.670;9.242;2022-07-21T01:23:16;20.00;99.90
32664;DHT22;19847;48.670;9.242;2022-07-21T01:26:42;20.00;99.90
32664;DHT22;19847;48.670;9.242;2022-07-21T01:30:06;19.90;99.90
32664;DHT22;19847;48.670;9.242;2022-07-21T01:33:31;19.90;99.90
32664;DHT22;19847;48.670;9.242;2022-07-21T01:36:53;19.90;99.90
32664;DHT22;19847;48.670;9.242;2022-07-21T01:40:17;19.80;99.90
32664;DHT22;19847;48.670;9.242;2022-07-21T01:43:40;19.80;99.90
32664;DHT22;19847;48.670;9.242;2022-07-21T01:47:03;19.80;99.90
32664;DHT22;19847;48.670;9.242;2022-07-21T01:50:25;19.80;99.90
32664;DHT22;19847;48.670;9.242;2022-07-21T01:53:47;19.80;99.90
32664;DHT22;19847;48.670;9.242;2022-07-21T01:57:11;19.80;99.90
32664;DHT22;19847;48.670;9.242;2022-07-21T02:00:34;19.80;99.90
32664;DHT22;19847;48.670;9.242;2022-07-21T02:03:59;19.70;99.90
32664;DHT22;19847;48.670;9.242;2022-07-21T02:07:21;19.70;99.90
32664;DHT22;19847;48.670;9.242;2022-07-21T02:10:43;19.60;99.90
32664;DHT22;19847;48.670;9.242;2022-07-21T02:14:07;19.60;99.90
32664;DHT22;19847;48.670;9.242;2022-07-21T02:17:29;19.60;99.90
32664;DHT22;19847;48.670;9.242;2022-07-21T02:20:51;19.50;99.90
32664;DHT22;19847;48.670;9.242;2022-07-21T02:24:13;19.50;99.90
32664;DHT22;19847;48.670;9.242;2022-07-21T02:27:35;19.40;99.90
32664;DHT22;19847;48.670;9.242;2022-07-21T02:30:58;19.40;99.90
32664;DHT22;19847;48.670;9.242;2022-07-21T02:34:21;19.40;99.90
32664;DHT22;19847;48.670;9.242;2022-07-21T02:37:43;19.40;99.90
32664;DHT22;19847;48.670;9.242;2022-07-21T02:41:05;19.30;99.90
32664;DHT22;19847;48.670;9.242;2022-07-21T02:44:27;19.30;99.90
32664;DHT22;19847;48.670;9.242;2022-07-21T02:47:56;19.30;99.90
32664;DHT22;19847;48.670;9.242;2022-07-21T02:51:18;19.40;99.90
32664;DHT22;19847;48.670;9.242;2022-07-21T02:54:40;19.30;99.90
32664;DHT22;19847;48.670;9.242;2022-07-21T02:58:08;19.30;99.90
32664;DHT22;19847;48.670;9.242;2022-07-21T03:01:30;19.30;99.90
32664;DHT22;19847;48.670;9.242;2022-07-21T03:04:54;19.30;99.90
32664;DHT22;19847;48.670;9.242;2022-07-21T03:08:17;19.30;99.90
32664;DHT22;19847;48.670;9.242;2022-07-21T03:11:39;19.30;99.90
32664;DHT22;19847;48.670;9.242;2022-07-21T03:15:01;19.40;99.90
32664;DHT22;19847;48.670;9.242;2022-07-21T03:18:23;19.30;99.90
32664;DHT22;19847;48.670;9.242;2022-07-21T03:21:47;19.40;99.90
32664;DHT22;19847;48.670;9.242;2022-07-21T03:25:09;19.40;99.90
32664;DHT22;19847;48.670;9.242;2022-07-21T03:28:31;19.40;99.90
32664;DHT22;19847;48.670;9.242;2022-07-21T03:31:53;19.40;99.90
32664;DHT22;19847;48.670;9.242;2022-07-21T03:35:15;19.40;99.90
32664;DHT22;19847;48.670;9.242;2022-07-21T03:38:39;19.40;99.90
32664;DHT22;19847;48.670;9.242;2022-07-21T03:42:01;19.40;99.90
32664;DHT22;19847;48.670;9.242;2022-07-21T03:45:24;19.30;99.90
32664;DHT22;19847;48.670;9.242;2022-07-21T03:48:46;19.30;99.90
32664;DHT22;19847;48.670;9.242;2022-07-21T03:52:14;19.30;99.90
32664;DHT22;19847;48.670;9.242;2022-07-21T03:55:37;19.20;99.90
32664;DHT22;19847;48.670;9.242;2022-07-21T03:58:59;19.10;99.90
32664;DHT22;19847;48.670;9.242;2022-07-21T04:02:21;19.10;99.90
32664;DHT22;19847;48.670;9.242;2022-07-21T04:05:43;19.20;99.90
32664;DHT22;19847;48.670;9.242;2022-07-21T04:09:05;19.30;99.90
32664;DHT22;19847;48.670;9.242;2022-07-21T04:12:29;19.40;99.90
32664;DHT22;19847;48.670;9.242;2022-07-21T04:15:51;19.40;99.90
32664;DHT22;19847;48.670;9.242;2022-07-21T04:19:13;19.50;99.90
32664;DHT22;19847;48.670;9.242;2022-07-21T04:22:36;19.60;99.90
32664;DHT22;19847;48.670;9.242;2022-07-21T04:25:58;19.70;99.90
32664;DHT22;19847;48.670;9.242;2022-07-21T04:29:22;19.70;99.90
32664;DHT22;19847;48.670;9.242;2022-07-21T04:32:44;19.70;99.90
32664;DHT22;19847;48.670;9.242;2022-07-21T04:36:07;19.70;99.90
32664;DHT22;19847;48.670;9.242;2022-07-21T04:39:29;19.80;99.90
32664;DHT22;19847;48.670;9.242;2022-07-21T04:42:51;19.90;99.90
32664;DHT22;19847;48.670;9.242;2022-07-21T04:46:14;19.90;99.90
32664;DHT22;19847;48.670;9.242;2022-07-21T04:49:37;20.00;99.90
32664;DHT22;19847;48.670;9.242;2022-07-21T04:52:59;20.00;99.90
32664;DHT22;19847;48.670;9.242;2022-07-21T04:56:21;20.00;99.90
32664;DHT22;19847;48.670;9.242;2022-07-21T04:59:43;20.20;99.90
32664;DHT22;19847;48.670;9.242;2022-07-21T05:03:07;20.30;99.90
32664;DHT22;19847;48.670;9.242;2022-07-21T05:06:29;20.50;99.90
32664;DHT22;19847;48.670;9.242;2022-07-21T05:09:51;20.60;99.90
32664;DHT22;19847;48.670;9.242;2022-07-21T05:13:13;20.80;99.90
32664;DHT22;19847;48.670;9.242;2022-07-21T05:16:35;20.90;99.90
32664;DHT22;19847;48.670;9.242;2022-07-21T05:19:59;21.10;99.90
32664;DHT22;19847;48.670;9.242;2022-07-21T05:23:21;21.20;99.90
32664;DHT22;19847;48.670;9.242;2022-07-21T05:26:43;21.50;99.90
32664;DHT22;19847;48.670;9.242;2022-07-21T05:30:06;22.00;99.90
32664;DHT22;19847;48.670;9.242;2022-07-21T05:33:29;22.70;99.90
32664;DHT22;19847;48.670;9.242;2022-07-21T05:36:52;23.40;99.90
32664;DHT22;19847;48.670;9.242;2022-07-21T05:40:14;24.10;99.90
32664;DHT22;19847;48.670;9.242;2022-07-21T05:43:37;24.80;99.90
32664;DHT22;19847;48.670;9.242;2022-07-21T05:46:59;25.30;99.90
32664;DHT22;19847;48.670;9.242;2022-07-21T05:50:21;25.60;99.90
32664;DHT22;19847;48.670;9.242;2022-07-21T05:53:44;26.10;99.90
32664;DHT22;19847;48.670;9.242;2022-07-21T05:57:06;26.60;99.90
32664;DHT22;19847;48.670;9.242;2022-07-21T06:00:28;27.20;99.90
32664;DHT22;19847;48.670;9.242;2022-07-21T06:03:51;27.90;99.90
32664;DHT22;19847;48.670;9.242;2022-07-21T06:07:13;27.70;99.90
32664;DHT22;19847;48.670;9.242;2022-07-21T06:10:36;28.40;99.90
32664;DHT22;19847;48.670;9.242;2022-07-21T06:13:59;29.20;99.90
32664;DHT22;19847;48.670;9.242;2022-07-21T06:17:22;29.50;99.90
32664;DHT22;19847;48.670;9.242;2022-07-21T06:20:44;30.00;99.90
32664;DHT22;19847;48.670;9.242;2022-07-21T06:24:06;31.20;99.90
32664;DHT22;19847;48.670;9.242;2022-07-21T06:27:30;31.30;99.90
32664;DHT22;19847;48.670;9.242;2022-07-21T06:30:52;31.40;99.90
32664;DHT22;19847;48.670;9.242;2022-07-21T06:34:15;30.80;99.90
32664;DHT22;19847;48.670;9.242;2022-07-21T06:37:37;31.00;99.90
32664;DHT22;19847;48.670;9.242;2022-07-21T06:40:59;31.80;99.90
32664;DHT22;19847;48.670;9.242;2022-07-21T06:44:22;32.80;96.70
32664;DHT22;19847;48.670;9.242;2022-07-21T06:47:44;33.10;92.90
32664;DHT22;19847;48.670;9.242;2022-07-21T06:51:07;33.30;90.70
32664;DHT22;19847;48.670;9.242;2022-07-21T06:54:29;33.10;89.70
32664;DHT22;19847;48.670;9.242;2022-07-21T06:57:51;32.70;91.10
32664;DHT22;19847;48.670;9.242;2022-07-21T07:01:14;33.00;90.00
32664;DHT22;19847;48.670;9.242;2022-07-21T07:04:37;32.40;91.00
32664;DHT22;19847;48.670;9.242;2022-07-21T07:07:59;32.10;85.30
32664;DHT22;19847;48.670;9.242;2022-07-21T07:11:21;31.90;87.90
32664;DHT22;19847;48.670;9.242;2022-07-21T07:14:44;31.70;92.00
32664;DHT22;19847;48.670;9.242;2022-07-21T07:18:07;33.20;88.20
32664;DHT22;19847;48.670;9.242;2022-07-21T07:21:29;32.70;83.70
32664;DHT22;19847;48.670;9.242;2022-07-21T07:24:51;32.80;85.90
32664;DHT22;19847;48.670;9.242;2022-07-21T07:28:13;33.10;83.80
32664;DHT22;19847;48.670;9.242;2022-07-21T07:31:36;32.40;81.00
32664;DHT22;19847;48.670;9.242;2022-07-21T07:34:59;30.80;85.00
32664;DHT22;19847;48.670;9.242;2022-07-21T07:38:22;30.60;89.50
32664;DHT22;19847;48.670;9.242;2022-07-21T07:41:44;32.20;87.40
32664;DHT22;19847;48.670;9.242;2022-07-21T07:45:07;33.20;81.80
32664;DHT22;19847;48.670;9.242;2022-07-21T07:48:29;33.80;79.60
32664;DHT22;19847;48.670;9.242;2022-07-21T07:51:53;32.60;83.40
32664;DHT22;19847;48.670;9.242;2022-07-21T07:55:15;31.90;79.40
32664;DHT22;19847;48.670;9.242;2022-07-21T07:58:37;32.10;83.10
32664;DHT22;19847;48.670;9.242;2022-07-21T08:01:59;32.00;82.00
32664;DHT22;19847;48.670;9.242;2022-07-21T08:05:21;32.10;76.60
32664;DHT22;19847;48.670;9.242;2022-07-21T08:08:45;32.80;79.40
32664;DHT22;19847;48.670;9.242;2022-07-21T08:12:07;32.60;76.40
32664;DHT22;19847;48.670;9.242;2022-07-21T08:15:29;30.80;80.00
32664;DHT22;19847;48.670;9.242;2022-07-21T08:18:52;29.90;83.60
32664;DHT22;19847;48.670;9.242;2022-07-21T08:22:14;29.50;82.20
32664;DHT22;19847;48.670;9.242;2022-07-21T08:25:38;29.40;86.90
32664;DHT22;19847;48.670;9.242;2022-07-21T08:29:00;29.30;88.00
32664;DHT22;19847;48.670;9.242;2022-07-21T08:32:22;31.40;84.90
32664;DHT22;19847;48.670;9.242;2022-07-21T08:35:44;32.40;82.40
32664;DHT22;19847;48.670;9.242;2022-07-21T08:39:06;32.30;79.40
32664;DHT22;19847;48.670;9.242;2022-07-21T08:42:30;31.60;78.60
32664;DHT22;19847;48.670;9.242;2022-07-21T08:45:53;30.20;82.90
32664;DHT22;19847;48.670;9.242;2022-07-21T08:49:15;29.30;83.60
32664;DHT22;19847;48.670;9.242;2022-07-21T08:52:41;29.20;81.40
32664;DHT22;19847;48.670;9.242;2022-07-21T08:56:03;29.70;85.80
32664;DHT22;19847;48.670;9.242;2022-07-21T08:59:27;30.10;78.00
32664;DHT22;19847;48.670;9.242;2022-07-21T09:03:08;30.00;83.10
32664;DHT22;19847;48.670;9.242;2022-07-21T09:06:30;30.90;76.70
32664;DHT22;19847;48.670;9.242;2022-07-21T09:09:57;31.10;84.60
32664;DHT22;19847;48.670;9.242;2022-07-21T09:13:20;32.20;80.20
32664;DHT22;19847;48.670;9.242;2022-07-21T09:16:45;33.00;71.90
32664;DHT22;19847;48.670;9.242;2022-07-21T09:20:21;33.00;71.40
32664;DHT22;19847;48.670;9.242;2022-07-21T09:23:44;33.30;70.20
32664;DHT22;19847;48.670;9.242;2022-07-21T09:27:11;32.70;72.20
32664;DHT22;19847;48.670;9.242;2022-07-21T09:30:47;32.50;74.20
32664;DHT22;19847;48.670;9.242;2022-07-21T09:34:14;31.60;70.70
32664;DHT22;19847;48.670;9.242;2022-07-21T09:37:37;31.50;71.50
32664;DHT22;19847;48.670;9.242;2022-07-21T09:41:08;30.90;79.50
32664;DHT22;19847;48.670;9.242;2022-07-21T09:44:30;31.50;75.00
32664;DHT22;19847;48.670;9.242;2022-07-21T09:47:53;32.00;74.40
32664;DHT22;19847;48.670;9.242;2022-07-21T09:51:25;30.90;74.70
32664;DHT22;19847;48.670;9.242;2022-07-21T09:54:48;31.40;75.40
32664;DHT22;19847;48.670;9.242;2022-07-21T09:58:11;31.70;78.30
32664;DHT22;19847;48.670;9.242;2022-07-21T10:01:33;30.70;76.40
32664;DHT22;19847;48.670;9.242;2022-07-21T10:04:57;30.40;73.40
32664;DHT22;19847;48.670;9.242;2022-07-21T10:08:30;31.70;71.60
32664;DHT22;19847;48.670;9.242;2022-07-21T10:11:54;31.50;72.10
32664;DHT22;19847;48.670;9.242;2022-07-21T10:15:17;32.10;71.20
32664;DHT22;19847;48.670;9.242;2022-07-21T10:18:54;32.70;73.40
32664;DHT22;19847;48.670;9.242;2022-07-21T10:22:23;33.30;70.20
32664;DHT22;19847;48.670;9.242;2022-07-21T10:25:49;32.60;72.70
32664;DHT22;19847;48.670;9.242;2022-07-21T10:29:11;32.20;71.40
32664;DHT22;19847;48.670;9.242;2022-07-21T10:32:35;32.20;68.00
32664;DHT22;19847;48.670;9.242;2022-07-21T10:35:57;32.30;67.30
32664;DHT22;19847;48.670;9.242;2022-07-21T10:39:29;32.50;71.20
32664;DHT22;19847;48.670;9.242;2022-07-21T10:47:02;31.90;73.90
32664;DHT22;19847;48.670;9.242;2022-07-21T10:50:29;31.20;68.20
32664;DHT22;19847;48.670;9.242;2022-07-21T10:54:16;30.30;74.00
32664;DHT22;19847;48.670;9.242;2022-07-21T10:57:39;29.80;74.50
32664;DHT22;19847;48.670;9.242;2022-07-21T11:01:03;30.10;72.90
32664;DHT22;19847;48.670;9.242;2022-07-21T11:05:03;30.00;74.60
32664;DHT22;19847;48.670;9.242;2022-07-21T11:08:30;29.40;75.70
32664;DHT22;19847;48.670;9.242;2022-07-21T11:11:58;29.00;76.70
32664;DHT22;19847;48.670;9.242;2022-07-21T11:15:45;29.20;77.80
32664;DHT22;19847;48.670;9.242;2022-07-21T11:19:27;29.50;74.50
32664;DHT22;19847;48.670;9.242;2022-07-21T11:22:53;29.80;74.10
32664;DHT22;19847;48.670;9.242;2022-07-21T11:26:17;30.00;74.60
32664;DHT22;19847;48.670;9.242;2022-07-21T11:29:41;29.80;75.00
32664;DHT22;19847;48.670;9.242;2022-07-21T11:33:04;29.80;72.20
32664;DHT22;19847;48.670;9.242;2022-07-21T11:36:28;29.60;74.40
32664;DHT22;19847;48.670;9.242;2022-07-21T11:39:52;29.40;72.00
32664;DHT22;19847;48.670;9.242;2022-07-21T11:43:14;29.30;73.40
32664;DHT22;19847;48.670;9.242;2022-07-21T11:46:47;29.10;76.20
32664;DHT22;19847;48.670;9.242;2022-07-21T11:50:11;29.20;75.00
32664;DHT22;19847;48.670;9.242;2022-07-21T11:53:34;29.30;73.60
32664;DHT22;19847;48.670;9.242;2022-07-21T11:56:59;29.50;68.10
32664;DHT22;19847;48.670;9.242;2022-07-21T12:00:24;29.40;73.60
32664;DHT22;19847;48.670;9.242;2022-07-21T12:03:47;29.00;73.60
32664;DHT22;19847;48.670;9.242;2022-07-21T12:07:22;28.80;74.10
32664;DHT22;19847;48.670;9.242;2022-07-21T12:10:44;28.70;73.60
32664;DHT22;19847;48.670;9.242;2022-07-21T12:14:08;28.60;71.90
32664;DHT22;19847;48.670;9.242;2022-07-21T12:17:35;28.50;74.50
32664;DHT22;19847;48.670;9.242;2022-07-21T12:21:01;28.50;76.40
32664;DHT22;19847;48.670;9.242;2022-07-21T12:24:47;29.00;70.30
32664;DHT22;19847;48.670;9.242;2022-07-21T12:28:10;29.30;71.90
32664;DHT22;19847;48.670;9.242;2022-07-21T12:31:34;29.40;68.60
32664;DHT22;19847;48.670;9.242;2022-07-21T12:34:57;29.30;68.30
32664;DHT22;19847;48.670;9.242;2022-07-21T12:38:40;29.50;72.50
32664;DHT22;19847;48.670;9.242;2022-07-21T12:42:03;29.40;71.40
32664;DHT22;19847;48.670;9.242;2022-07-21T12:45:26;29.20;68.20
32664;DHT22;19847;48.670;9.242;2022-07-21T12:48:49;29.10;70.70
32664;DHT22;19847;48.670;9.242;2022-07-21T12:52:12;28.80;71.50
32664;DHT22;19847;48.670;9.242;2022-07-21T12:55:35;28.70;72.60
32664;DHT22;19847;48.670;9.242;2022-07-21T12:58:59;28.80;68.50
32664;DHT22;19847;48.670;9.242;2022-07-21T13:02:21;28.90;68.30
32664;DHT22;19847;48.670;9.242;2022-07-21T13:05:45;29.30;71.40
32664;DHT22;19847;48.670;9.242;2022-07-21T13:09:07;29.50;66.90
32664;DHT22;19847;48.670;9.242;2022-07-21T13:12:29;29.70;71.50
32664;DHT22;19847;48.670;9.242;2022-07-21T13:15:51;29.90;66.70
32664;DHT22;19847;48.670;9.242;2022-07-21T13:19:13;29.70;65.80
32664;DHT22;19847;48.670;9.242;2022-07-21T13:22:36;29.80;66.10
32664;DHT22;19847;48.670;9.242;2022-07-21T13:25:59;29.60;68.20
32664;DHT22;19847;48.670;9.242;2022-07-21T13:29:26;29.50;69.30
32664;DHT22;19847;48.670;9.242;2022-07-21T13:32:49;29.40;71.30
32664;DHT22;19847;48.670;9.242;2022-07-21T13:36:11;29.20;69.70
32664;DHT22;19847;48.670;9.242;2022-07-21T13:39:37;29.10;68.70
32664;DHT22;19847;48.670;9.242;2022-07-21T13:43:19;29.20;69.90
32664;DHT22;19847;48.670;9.242;2022-07-21T13:46:57;29.00;72.40
32664;DHT22;19847;48.670;9.242;2022-07-21T13:50:19;28.80;72.90
32664;DHT22;19847;48.670;9.242;2022-07-21T13:53:42;28.70;74.60
32664;DHT22;19847;48.670;9.242;2022-07-21T13:57:06;28.40;74.80
32664;DHT22;19847;48.670;9.242;2022-07-21T14:00:28;28.30;74.80
32664;DHT22;19847;48.670;9.242;2022-07-21T14:03:51;28.10;73.50
32664;DHT22;19847;48.670;9.242;2022-07-21T14:07:14;28.20;72.90
32664;DHT22;19847;48.670;9.242;2022-07-21T14:10:36;28.30;73.90
32664;DHT22;19847;48.670;9.242;2022-07-21T14:14:00;28.50;73.30
32664;DHT22;19847;48.670;9.242;2022-07-21T14:17:22;28.50;73.00
32664;DHT22;19847;48.670;9.242;2022-07-21T14:20:44;28.20;73.30
32664;DHT22;19847;48.670;9.242;2022-07-21T14:24:06;27.90;73.60
32664;DHT22;19847;48.670;9.242;2022-07-21T14:27:29;27.70;74.70
32664;DHT22;19847;48.670;9.242;2022-07-21T14:30:53;27.70;76.90
32664;DHT22;19847;48.670;9.242;2022-07-21T14:34:21;27.90;75.80
32664;DHT22;19847;48.670;9.242;2022-07-21T14:37:43;27.70;75.40
32664;DHT22;19847;48.670;9.242;2022-07-21T14:41:05;27.80;75.30
32664;DHT22;19847;48.670;9.242;2022-07-21T14:44:28;27.90;75.70
32664;DHT22;19847;48.670;9.242;2022-07-21T14:47:53;27.90;74.00
32664;DHT22;19847;48.670;9.242;2022-07-21T14:51:15;27.90;75.20
32664;DHT22;19847;48.670;9.242;2022-07-21T14:54:37;27.90;77.20
32664;DHT22;19847;48.670;9.242;2022-07-21T14:57:59;27.80;76.70
32664;DHT22;19847;48.670;9.242;2022-07-21T15:01:23;27.70;74.70
32664;DHT22;19847;48.670;9.242;2022-07-21T15:04:47;27.60;75.00
32664;DHT22;19847;48.670;9.242;2022-07-21T15:08:10;27.70;74.60
32664;DHT22;19847;48.670;9.242;2022-07-21T15:11:35;27.70;74.50
32664;DHT22;19847;48.670;9.242;2022-07-21T15:14:57;27.90;76.70
32664;DHT22;19847;48.670;9.242;2022-07-21T15:18:19;28.20;72.80
32664;DHT22;19847;48.670;9.242;2022-07-21T15:21:43;28.50;71.20
32664;DHT22;19847;48.670;9.242;2022-07-21T15:25:06;28.40;72.20
32664;DHT22;19847;48.670;9.242;2022-07-21T15:28:29;28.50;73.40
32664;DHT22;19847;48.670;9.242;2022-07-21T15:31:51;28.60;71.10
32664;DHT22;19847;48.670;9.242;2022-07-21T15:35:13;28.70;72.30
32664;DHT22;19847;48.670;9.242;2022-07-21T15:38:37;28.90;70.90
32664;DHT22;19847;48.670;9.242;2022-07-21T15:41:59;28.70;72.60
32664;DHT22;19847;48.670;9.242;2022-07-21T15:45:21;28.50;69.70
32664;DHT22;19847;48.670;9.242;2022-07-21T15:48:43;28.30;72.60
32664;DHT22;19847;48.670;9.242;2022-07-21T15:52:05;28.10;73.40
32664;DHT22;19847;48.670;9.242;2022-07-21T15:55:28;28.00;73.40
32664;DHT22;19847;48.670;9.242;2022-07-21T15:58:50;27.90;71.50
32664;DHT22;19847;48.670;9.242;2022-07-21T16:02:14;27.80;73.00
32664;DHT22;19847;48.670;9.242;2022-07-21T16:05:36;27.90;74.00
32664;DHT22;19847;48.670;9.242;2022-07-21T16:08:58;28.00;73.00
32664;DHT22;19847;48.670;9.242;2022-07-21T16:12:22;28.10;72.20
32664;DHT22;19847;48.670;9.242;2022-07-21T16:15:44;28.10;70.00
32664;DHT22;19847;48.670;9.242;2022-07-21T16:19:06;28.30;73.20
32664;DHT22;19847;48.670;9.242;2022-07-21T16:22:32;28.60;73.20
32664;DHT22;19847;48.670;9.242;2022-07-21T16:25:54;28.70;71.40
32664;DHT22;19847;48.670;9.242;2022-07-21T16:29:18;28.70;69.70
32664;DHT22;19847;48.670;9.242;2022-07-21T16:32:41;28.60;69.70
32664;DHT22;19847;48.670;9.242;2022-07-21T16:36:03;28.40;68.70
32664;DHT22;19847;48.670;9.242;2022-07-21T16:39:26;28.00;68.70
32664;DHT22;19847;48.670;9.242;2022-07-21T16:42:50;27.80;70.10
32664;DHT22;19847;48.670;9.242;2022-07-21T16:46:14;28.00;71.00
32664;DHT22;19847;48.670;9.242;2022-07-21T16:49:36;28.00;71.30
32664;DHT22;19847;48.670;9.242;2022-07-21T16:52:58;28.10;72.30
32664;DHT22;19847;48.670;9.242;2022-07-21T16:56:20;28.10;74.30
32664;DHT22;19847;48.670;9.242;2022-07-21T16:59:42;28.10;72.60
32664;DHT22;19847;48.670;9.242;2022-07-21T17:03:08;28.20;70.70
32664;DHT22;19847;48.670;9.242;2022-07-21T17:06:30;28.10;70.90
32664;DHT22;19847;48.670;9.242;2022-07-21T17:09:53;28.10;71.50
32664;DHT22;19847;48.670;9.242;2022-07-21T17:13:15;28.00;71.20
32664;DHT22;19847;48.670;9.242;2022-07-21T17:16:38;28.00;70.10
32664;DHT22;19847;48.670;9.242;2022-07-21T17:20:04;27.70;69.20
32664;DHT22;19847;48.670;9.242;2022-07-21T17:23:26;27.50;72.90
32664;DHT22;19847;48.670;9.242;2022-07-21T17:26:48;27.30;72.80
32664;DHT22;19847;48.670;9.242;2022-07-21T17:30:11;27.00;72.30
32664;DHT22;19847;48.670;9.242;2022-07-21T17:33:43;26.90;72.60
32664;DHT22;19847;48.670;9.242;2022-07-21T17:37:07;26.70;73.90
32664;DHT22;19847;48.670;9.242;2022-07-21T17:40:29;26.60;75.60
32664;DHT22;19847;48.670;9.242;2022-07-21T17:43:52;26.60;76.30
32664;DHT22;19847;48.670;9.242;2022-07-21T17:47:19;26.50;75.60
32664;DHT22;19847;48.670;9.242;2022-07-21T17:50:42;26.50;75.40
32664;DHT22;19847;48.670;9.242;2022-07-21T17:54:05;26.50;77.70
32664;DHT22;19847;48.670;9.242;2022-07-21T17:57:27;26.40;80.30
32664;DHT22;19847;48.670;9.242;2022-07-21T18:00:49;26.20;80.90
32664;DHT22;19847;48.670;9.242;2022-07-21T18:04:12;26.20;81.00
32664;DHT22;19847;48.670;9.242;2022-07-21T18:07:34;26.20;81.60
32664;DHT22;19847;48.670;9.242;2022-07-21T18:10:58;26.10;81.30
32664;DHT22;19847;48.670;9.242;2022-07-21T18:14:22;26.00;82.50
32664;DHT22;19847;48.670;9.242;2022-07-21T18:17:45;26.00;82.40
32664;DHT22;19847;48.670;9.242;2022-07-21T18:21:07;26.00;82.20
32664;DHT22;19847;48.670;9.242;2022-07-21T18:24:30;26.00;81.30
32664;DHT22;19847;48.670;9.242;2022-07-21T18:27:54;25.90;80.70
32664;DHT22;19847;48.670;9.242;2022-07-21T18:31:16;25.90;81.20
32664;DHT22;19847;48.670;9.242;2022-07-21T18:34:38;25.90;81.50
32664;DHT22;19847;48.670;9.242;2022-07-21T18:38:01;25.90;81.20
32664;DHT22;19847;48.670;9.242;2022-07-21T18:41:24;25.90;82.20
32664;DHT22;19847;48.670;9.242;2022-07-21T18:44:49;25.90;82.40
32664;DHT22;19847;48.670;9.242;2022-07-21T18:48:12;25.90;82.20
32664;DHT22;19847;48.670;9.242;2022-07-21T18:51:55;25.80;82.00
32664;DHT22;19847;48.670;9.242;2022-07-21T18:55:18;25.70;82.60
32664;DHT22;19847;48.670;9.242;2022-07-21T18:58:40;25.70;81.70
32664;DHT22;19847;48.670;9.242;2022-07-21T19:02:03;25.60;81.90
32664;DHT22;19847;48.670;9.242;2022-07-21T19:05:26;25.50;81.60
32664;DHT22;19847;48.670;9.242;2022-07-21T19:08:49;25.40;82.00
32664;DHT22;19847;48.670;9.242;2022-07-21T19:12:11;25.30;82.70
32664;DHT22;19847;48.670;9.242;2022-07-21T19:15:34;25.20;81.70
32664;DHT22;19847;48.670;9.242;2022-07-21T19:18:57;25.10;82.80
32664;DHT22;19847;48.670;9.242;2022-07-21T19:22:20;25.00;83.80
32664;DHT22;19847;48.670;9.242;2022-07-21T19:25:43;24.80;82.20
32664;DHT22;19847;48.670;9.242;2022-07-21T19:29:07;24.80;81.40
32664;DHT22;19847;48.670;9.242;2022-07-21T19:32:29;24.70;81.80
32664;DHT22;19847;48.670;9.242;2022-07-21T19:35:52;24.60;82.40
32664;DHT22;19847;48.670;9.242;2022-07-21T19:39:14;24.50;82.80
32664;DHT22;19847;48.670;9.242;2022-07-21T19:42:37;24.40;82.60
32664;DHT22;19847;48.670;9.242;2022-07-21T19:46:00;24.30;83.50
32664;DHT22;19847;48.670;9.242;2022-07-21T19:49:24;24.30;83.70
32664;DHT22;19847;48.670;9.242;2022-07-21T19:52:48;24.20;83.40
32664;DHT22;19847;48.670;9.242;2022-07-21T19:56:11;24.10;86.00
32664;DHT22;19847;48.670;9.242;2022-07-21T19:59:34;24.00;84.10
32664;DHT22;19847;48.670;9.242;2022-07-21T20:02:57;23.90;84.20
32664;DHT22;19847;48.670;9.242;2022-07-21T20:06:19;23.80;84.70
32664;DHT22;19847;48.670;9.242;2022-07-21T20:09:43;23.70;86.30
32664;DHT22;19847;48.670;9.242;2022-07-21T20:13:06;23.60;85.40
32664;DHT22;19847;48.670;9.242;2022-07-21T20:16:28;23.60;86.40
32664;DHT22;19847;48.670;9.242;2022-07-21T20:19:51;23.50;88.00
32664;DHT22;19847;48.670;9.242;2022-07-21T20:23:13;23.50;87.90
32664;DHT22;19847;48.670;9.242;2022-07-21T20:26:37;23.40;90.00
32664;DHT22;19847;48.670;9.242;2022-07-21T20:30:01;23.30;90.40
32664;DHT22;19847;48.670;9.242;2022-07-21T20:33:24;23.20;91.20
32664;DHT22;19847;48.670;9.242;2022-07-21T20:36:47;23.10;91.50
32664;DHT22;19847;48.670;9.242;2022-07-21T20:40:10;23.00;91.30
32664;DHT22;19847;48.670;9.242;2022-07-21T20:43:46;23.00;91.60
32664;DHT22;19847;48.670;9.242;2022-07-21T20:47:08;22.90;92.30
32664;DHT22;19847;48.670;9.242;2022-07-21T20:50:30;22.70;92.90
32664;DHT22;19847;48.670;9.242;2022-07-21T20:53:53;22.60;93.50
32664;DHT22;19847;48.670;9.242;2022-07-21T20:57:15;22.60;93.20
32664;DHT22;19847;48.670;9.242;2022-07-21T21:00:38;22.50;93.70
32664;DHT22;19847;48.670;9.242;2022-07-21T21:04:00;22.30;94.70
32664;DHT22;19847;48.670;9.242;2022-07-21T21:07:22;22.20;94.50
32664;DHT22;19847;48.670;9.242;2022-07-21T21:10:44;22.10;94.60
32664;DHT22;19847;48.670;9.242;2022-07-21T21:14:06;22.10;94.80
32664;DHT22;19847;48.670;9.242;2022-07-21T21:17:30;22.10;95.80
32664;DHT22;19847;48.670;9.242;2022-07-21T21:20:52;22.00;95.80
32664;DHT22;19847;48.670;9.242;2022-07-21T21:24:14;21.80;96.20
32664;DHT22;19847;48.670;9.242;2022-07-21T21:27:37;21.80;97.20
32664;DHT22;19847;48.670;9.242;2022-07-21T21:30:59;21.70;97.60